Marmora, Canada
Current Conditions -  °F | °C
As of 1:00 AM on Tuesday 21 Oct 2014 (Local Time) from CYTR Reporting Station
Drizzle Drizzle  
Wind Chill: 52°   Ceiling: 900
Heat Index: 52°   Visibility: 5mi
Dew Point: 52°   Wind: 6mph
Humidity: 100%   Direction: 180°S
Pressure: 29.79"   Gusts: NA
Location:  44.48°N, 77.68°W
Report Text: CYTR 210500Z 18005KT 5SM -DZ BR OVC009 11/11 A2979 RMK SF8 VIS VRB 3-7 CIG VRB 6-12 SLP093
Loading
Personal Weather Stations






























Interactive Weather Map
Tropical Storm Tracking
New forecast layout! Learn more

10-Day Weather Forecast

Advertisements
Track Severe Weather on mobile